Aishalton Airport


Codes: SYAH/AHL
Name: Aishalton Airport
City: Aishalton
Country: Guyana
Elevation: 587 ft.

Photos at Aishalton Airport


   Photos courtesy of SpottingLog. You can add your own sightings and photos by signing up for a free trial today.



No photos found.

Weather at Aishalton Airport


Time (UTC)DescriptionTempratureWindCloud coverageVisibilityPressureHumidity
21-Feb-2024 03:00Few Clouds27°C7 mph, NE23%10000m1010hPa42%
21-Feb-2024 06:00Scattered Clouds26°C9 mph, NE35%10000m1010hPa46%
21-Feb-2024 09:00Broken Clouds24°C11 mph, NE74%10000m1011hPa57%
21-Feb-2024 12:00Overcast Clouds25°C11 mph, NE100%10000m1012hPa62%
21-Feb-2024 15:00Overcast Clouds34°C11 mph, NE89%10000m1011hPa33%
21-Feb-2024 18:00Overcast Clouds38°C9 mph, NE87%10000m1006hPa23%
21-Feb-2024 21:00Overcast Clouds37°C7 mph, NE86%10000m1005hPa22%
22-Feb-2024 00:00Broken Clouds30°C7 mph, NE84%10000m1007hPa37%
22-Feb-2024 03:00Overcast Clouds28°C7 mph, NE98%10000m1008hPa42%
22-Feb-2024 06:00Overcast Clouds27°C11 mph, NE99%10000m1007hPa46%
22-Feb-2024 09:00Overcast Clouds24°C11 mph, NE100%10000m1009hPa63%
22-Feb-2024 12:00Overcast Clouds25°C11 mph, NE100%10000m1012hPa63%
22-Feb-2024 15:00Scattered Clouds34°C11 mph, NE36%10000m1010hPa35%
22-Feb-2024 18:00Scattered Clouds38°C9 mph, NE41%10000m1006hPa25%
22-Feb-2024 21:00Broken Clouds38°C7 mph, NE72%10000m1004hPa23%
23-Feb-2024 00:00Broken Clouds31°C7 mph, NE77%10000m1006hPa36%
23-Feb-2024 03:00Broken Clouds29°C7 mph, NE57%10000m1008hPa40%
23-Feb-2024 06:00Broken Clouds28°C11 mph, NE54%10000m1007hPa51%
23-Feb-2024 09:00Broken Clouds26°C9 mph, NE80%10000m1010hPa63%
23-Feb-2024 12:00Overcast Clouds26°C9 mph, NE86%10000m1012hPa68%
23-Feb-2024 15:00Few Clouds34°C11 mph, NE14%10000m1011hPa39%
23-Feb-2024 18:00Few Clouds39°C9 mph, NE16%10000m1006hPa27%
23-Feb-2024 21:00Light Rain33°C11 mph, E98%10000m1006hPa41%
24-Feb-2024 00:00Light Rain28°C7 mph, E90%10000m1008hPa61%
24-Feb-2024 03:00Light Rain27°C7 mph, E83%10000m1010hPa63%
24-Feb-2024 06:00Broken Clouds26°C9 mph, NE55%10000m1009hPa68%
24-Feb-2024 09:00Few Clouds25°C9 mph, NE11%10000m1010hPa75%
24-Feb-2024 12:00Few Clouds28°C11 mph, NE16%10000m1012hPa63%
24-Feb-2024 15:00Clear Sky35°C11 mph, NE4%10000m1011hPa38%
24-Feb-2024 18:00Scattered Clouds36°C9 mph, E32%10000m1007hPa33%
24-Feb-2024 21:00Broken Clouds35°C9 mph, E65%10000m1006hPa35%
25-Feb-2024 00:00Scattered Clouds30°C7 mph, NE41%10000m1008hPa49%
25-Feb-2024 03:00Clear Sky29°C9 mph, NE9%10000m1010hPa55%
25-Feb-2024 06:00Scattered Clouds27°C9 mph, NE35%10000m1009hPa64%
25-Feb-2024 09:00Broken Clouds25°C9 mph, NE67%10000m1011hPa75%
25-Feb-2024 12:00Broken Clouds27°C11 mph, NE58%10000m1013hPa69%
25-Feb-2024 15:00Broken Clouds34°C11 mph, NE74%10000m1012hPa44%
25-Feb-2024 18:00Light Rain34°C9 mph, NE77%10000m1008hPa40%
25-Feb-2024 21:00Light Rain33°C4 mph, NE95%10000m1007hPa45%
26-Feb-2024 00:00Broken Clouds28°C7 mph, E70%10000m1009hPa61%